Cedarville, Illinois
Current Conditions -  °F | °C
As of 11:35 AM on Saturday 25 Oct 2014 (Local Time) from KFEP Reporting Station
Clear Clear  
Wind Chill: 65°   Ceiling: Unl
Heat Index: 65°   Visibility: 10mi
Dew Point: 39°   Wind: 14mph
Humidity: 40%   Direction: 320°NW
Pressure: 30.02"   Gusts: 21mph
Location:  42.38°N, 89.63°W
Report Text: KFEP 251635Z AUTO 32012G18KT 10SM CLR 18/04 A3002 RMK AO2 T01810041
Loading
Personal Weather Stations






























Interactive Weather Map
Tropical Storm Tracking
New forecast layout! Learn more

10-Day Weather Forecast

Advertisements
Track Severe Weather on mobile